Terminal Aerodrome Forecast
Issued by NWS Cleveland, OH

Home | Current Version | Previous Version | Graphics & Text | Print | Product List | Glossary On
Versions: 1 2 3 4 5 6 7 8 9 10 11 12 13 14 15 16 17 18 19 20 21
000
FTUS41 KCLE 242300
TAFTOL
TAF
KTOL 242320Z 2500/2524 08009KT P6SM BKN080
     FM250800 12003KT 5SM BR BKN080
     FM251300 15003KT 5SM BR OVC025
     FM251500 15005KT P6SM BKN250=

USA.gov is the U.S. government's official web portal to all federal, state and local government web resources and services.